Pietro Novelli — IOTQ — position and weather

sailwx.info

Track history (hours):
 
Tides and Currents Weather Stations Pressure Air Temp Water Temp Dewpoint Dewpoint Depression Visibility Wind Speed Wind Dir Waves Ship Positions

Pietro Novelli

Last reported at 2015-May-21 04:14 UTC. Time now 2015-May-22 09:58 UTC.
Position N 38°01' E 012°30'.

Length 91 m; draft 3.9 m.

Type: Ship. MMSI: 247000300.

Date/timePositionNaut miles runAvg speedWind from/ knotsBaromVisibWave heightAir tempDewpointWater temp
2015-May-21 04:14N 38°01' E 012°30'0 0.0
2015-May-21 03:26N 38°01' E 012°30'0 0.0
2015-May-21 02:26N 38°01' E 012°30'0 0.0
2015-May-21 01:32N 38°01' E 012°30'0 0.0
2015-May-21 00:32N 38°01' E 012°30'0 0.0
2015-May-20 23:32N 38°01' E 012°30'0 0.0
2015-May-20 22:20N 38°01' E 012°30'0 0.0
2015-May-20 21:32N 38°01' E 012°30'0 0.0
2015-May-20 20:23N 38°01' E 012°30'0 0.0
2015-May-20 19:23N 38°01' E 012°30'0 0.0
2015-May-20 18:23N 38°01' E 012°30'0 0.0
2015-May-20 17:33N 38°01' E 012°30'0 0.0
2015-May-20 16:33N 38°01' E 012°30'0 0.0
2015-May-20 15:33N 38°01' E 012°30'0 0.0
2015-May-20 14:33N 38°01' E 012°30'1 0.8
2015-May-20 13:33N 38°00' E 012°30'1212.1
2015-May-20 12:33N 37°50' E 012°21'1414.3
2015-May-20 11:33N 37°37' E 012°15'49 6.7
2015-May-20 04:18N 36°50' E 011°56'7 9.0
2015-May-20 03:33N 36°57' E 011°57'1110.2
2015-May-20 02:29N 37°07' E 012°02'1010.3
2015-May-20 01:33N 37°16' E 012°06'1310.8
2015-May-20 00:23N 37°28' E 012°11'911.1
2015-May-19 23:33N 37°37' E 012°15'1111.2
2015-May-19 22:33N 37°47' E 012°19'1110.9
2015-May-19 21:33N 37°57' E 012°25'6 5.5
2015-May-19 20:33N 38°01' E 012°30'0 0.0
2015-May-19 19:33N 38°01' E 012°30'0 0.0
2015-May-19 18:33N 38°01' E 012°30'0 0.0
2015-May-19 17:33N 38°01' E 012°30'0 0.0
2015-May-19 16:33N 38°01' E 012°30'0 0.0
2015-May-19 15:33N 38°01' E 012°30'0 0.0
2015-May-19 14:33N 38°01' E 012°30'2 1.7
2015-May-19 13:33N 37°60' E 012°29'1313.1
2015-May-19 12:33N 37°48' E 012°22'1413.6
2015-May-19 11:33N 37°35' E 012°18'1413.3
2015-May-19 10:32N 37°22' E 012°12'1413.9
2015-May-19 09:33N 37°09' E 012°07'1613.3
2015-May-19 08:19N 36°54' E 011°58'37 4.6
2015-May-19 00:22N 37°29' E 012°14'2210.8
2015-May-18 22:21N 37°50' E 012°21'910.8
2015-May-18 21:33N 37°57' E 012°26'5 5.1
2015-May-18 20:33N 38°01' E 012°30'0 0.0
2015-May-18 19:33N 38°01' E 012°30'0 0.0
2015-May-18 18:33N 38°01' E 012°30'0 0.0
2015-May-18 17:34N 38°01' E 012°30'0 0.0
2015-May-18 16:34N 38°01' E 012°30'0 0.0
2015-May-18 15:34N 38°01' E 012°30'0 0.0
2015-May-18 14:34N 38°01' E 012°30'5 4.7
2015-May-18 13:34N 37°58' E 012°25'1312.6
2015-May-18 12:34N 37°46' E 012°20'0 0.0
2015-May-17 22:31N 37°47' E 012°20'1111.4
2015-May-17 21:33N 37°57' E 012°25'  
2015-May-15 06:29N 38°01' E 012°30'0 0.0
2015-May-15 05:33N 38°01' E 012°30'0 0.0
2015-May-15 04:26N 38°01' E 012°30'0 0.0
2015-May-15 03:12N 38°01' E 012°30'0 0.0
2015-May-15 02:25N 38°01' E 012°30'0 0.0
2015-May-15 01:25N 38°01' E 012°30'0 0.0
2015-May-15 00:24N 38°01' E 012°30'0 0.0
2015-May-14 23:24N 38°01' E 012°30'0 0.0
2015-May-14 22:30N 38°01' E 012°30'0 0.0
2015-May-14 21:30N 38°01' E 012°30'0 0.0
2015-May-14 20:31N 38°01' E 012°30'0 0.0
2015-May-14 19:31N 38°01' E 012°30'0 0.0
2015-May-14 18:31N 38°01' E 012°30'0 0.0
2015-May-14 17:08N 38°01' E 012°30'0 0.0
2015-May-14 16:23N 38°01' E 012°30'0 0.0
2015-May-14 15:29N 38°01' E 012°30'0 0.0
2015-May-14 14:33N 38°01' E 012°30'1 1.2
2015-May-14 13:33N 37°60' E 012°29'1010.0
2015-May-14 12:33N 37°52' E 012°22'1514.6
2015-May-14 11:33N 37°38' E 012°16'1414.4
2015-May-14 10:34N 37°25' E 012°10'1414.3
2015-May-14 09:34N 37°11' E 012°04'1414.1
2015-May-14 08:34N 36°57' E 011°59'8 7.7
2015-May-14 07:33N 36°50' E 011°56'0 0.0
2015-May-14 06:33N 36°50' E 011°56'0 0.0
2015-May-14 05:33N 36°50' E 011°56'0 0.0
2015-May-14 04:33N 36°50' E 011°56'7 6.9
2015-May-14 03:33N 36°57' E 011°57'1010.1
2015-May-14 02:32N 37°07' E 012°01'1010.5
2015-May-14 01:33N 37°17' E 012°05'1110.7
2015-May-14 00:33N 37°27' E 012°10'1010.4
2015-May-13 23:34N 37°36' E 012°15'1110.9
2015-May-13 22:34N 37°46' E 012°19'1111.2
2015-May-13 21:33N 37°57' E 012°25'6 5.6
2015-May-13 20:31N 38°01' E 012°30'0 0.0
2015-May-13 19:28N 38°01' E 012°30'0 0.0
2015-May-13 18:31N 38°01' E 012°30'0 0.0
2015-May-13 17:33N 38°01' E 012°30'0 0.0
2015-May-13 16:33N 38°01' E 012°30'0 0.0
2015-May-13 15:33N 38°01' E 012°30'0 0.0
2015-May-13 14:33N 38°01' E 012°30'1 1.1
2015-May-13 13:33N 37°60' E 012°29'1010.1
2015-May-13 12:33N 37°52' E 012°21'1414.5
2015-May-13 11:33N 37°39' E 012°14'1414.4
2015-May-13 10:33N 37°25' E 012°09'1414.3
2015-May-13 09:33N 37°11' E 012°04'1413.8
2015-May-13 08:31N 36°57' E 011°59'14 2.1
2015-May-13 02:06N 37°11' E 012°01'610.8
2015-May-13 01:33N 37°16' E 012°04'3310.9
2015-May-12 22:31N 37°47' E 012°19'1111.1
2015-May-12 21:33N 37°57' E 012°25'6 5.9
2015-May-12 20:33N 38°01' E 012°30'0 0.0
2015-May-12 19:33N 38°01' E 012°30'0 0.0
2015-May-12 18:33N 38°01' E 012°30'0 0.0
2015-May-12 17:33N 38°01' E 012°30'0 0.0
2015-May-12 16:33N 38°01' E 012°30'0 0.0
2015-May-12 15:33N 38°01' E 012°30'0 0.0
2015-May-12 14:33N 38°01' E 012°30'0 0.4
2015-May-12 13:33N 38°01' E 012°30'1212.2
2015-May-12 12:33N 37°51' E 012°21'1413.6
2015-May-12 11:33N 37°38' E 012°15'1413.9
2015-May-12 10:33N 37°25' E 012°10'1414.0
2015-May-12 09:34N 37°11' E 012°05'1414.1
2015-May-12 08:33N 36°58' E 011°59'8 8.1
2015-May-12 07:34N 36°50' E 011°56'0 0.0
2015-May-12 06:34N 36°50' E 011°56'0 0.0
2015-May-12 05:33N 36°50' E 011°56'0 0.0
2015-May-12 04:28N 36°50' E 011°56'29 9.5
2015-May-12 01:25N 37°18' E 012°06'910.8
2015-May-12 00:33N 37°26' E 012°11'1110.9
2015-May-11 23:33N 37°37' E 012°15'1111.0
2015-May-11 22:33N 37°47' E 012°20'1010.6
2015-May-11 21:33N 37°57' E 012°25'6 5.9
2015-May-11 20:34N 38°01' E 012°30'0 0.0
2015-May-11 19:34N 38°01' E 012°30'0 0.0
2015-May-11 18:34N 38°01' E 012°30'0 0.0
2015-May-11 17:33N 38°01' E 012°30'0 0.0
2015-May-11 16:34N 38°01' E 012°30'0 0.0
2015-May-11 15:34N 38°01' E 012°30'0 0.0
2015-May-11 14:33N 38°01' E 012°30'2 2.4
2015-May-11 13:33N 37°59' E 012°28'1313.0
2015-May-11 12:33N 37°48' E 012°19'1313.3
2015-May-11 11:33N 37°36' E 012°13'1313.2
2015-May-11 10:33N 37°24' E 012°07'1413.6
2015-May-11 09:33N 37°11' E 012°02'21 4.2
2015-May-11 04:33N 36°50' E 011°56'  
Track history (hours):
 
Tides and Currents Weather Stations Pressure Air Temp Water Temp Dewpoint Dewpoint Depression Visibility Wind Speed Wind Dir Waves Ship Positions

Pietro Novelli

Last reported at 2015-May-21 04:14 UTC. Time now 2015-May-22 09:58 UTC.
Position N 38°01' E 012°30'.

Length 91 m; draft 3.9 m.

Type: Ship. MMSI: 247000300.

Date/timePositionNaut miles runAvg speedWind from/ knotsBaromVisibWave heightAir tempDewpointWater temp
2015-May-21 04:14N 38°01' E 012°30'0 0.0
2015-May-21 03:26N 38°01' E 012°30'0 0.0
2015-May-21 02:26N 38°01' E 012°30'0 0.0
2015-May-21 01:32N 38°01' E 012°30'0 0.0
2015-May-21 00:32N 38°01' E 012°30'0 0.0
2015-May-20 23:32N 38°01' E 012°30'0 0.0
2015-May-20 22:20N 38°01' E 012°30'0 0.0
2015-May-20 21:32N 38°01' E 012°30'0 0.0
2015-May-20 20:23N 38°01' E 012°30'0 0.0
2015-May-20 19:23N 38°01' E 012°30'0 0.0
2015-May-20 18:23N 38°01' E 012°30'0 0.0
2015-May-20 17:33N 38°01' E 012°30'0 0.0
2015-May-20 16:33N 38°01' E 012°30'0 0.0
2015-May-20 15:33N 38°01' E 012°30'0 0.0
2015-May-20 14:33N 38°01' E 012°30'1 0.8
2015-May-20 13:33N 38°00' E 012°30'1212.1
2015-May-20 12:33N 37°50' E 012°21'1414.3
2015-May-20 11:33N 37°37' E 012°15'49 6.7
2015-May-20 04:18N 36°50' E 011°56'7 9.0
2015-May-20 03:33N 36°57' E 011°57'1110.2
2015-May-20 02:29N 37°07' E 012°02'1010.3
2015-May-20 01:33N 37°16' E 012°06'1310.8
2015-May-20 00:23N 37°28' E 012°11'911.1
2015-May-19 23:33N 37°37' E 012°15'1111.2
2015-May-19 22:33N 37°47' E 012°19'1110.9
2015-May-19 21:33N 37°57' E 012°25'6 5.5
2015-May-19 20:33N 38°01' E 012°30'0 0.0
2015-May-19 19:33N 38°01' E 012°30'0 0.0
2015-May-19 18:33N 38°01' E 012°30'0 0.0
2015-May-19 17:33N 38°01' E 012°30'0 0.0
2015-May-19 16:33N 38°01' E 012°30'0 0.0
2015-May-19 15:33N 38°01' E 012°30'0 0.0
2015-May-19 14:33N 38°01' E 012°30'2 1.7
2015-May-19 13:33N 37°60' E 012°29'1313.1
2015-May-19 12:33N 37°48' E 012°22'1413.6
2015-May-19 11:33N 37°35' E 012°18'1413.3
2015-May-19 10:32N 37°22' E 012°12'1413.9
2015-May-19 09:33N 37°09' E 012°07'1613.3
2015-May-19 08:19N 36°54' E 011°58'37 4.6
2015-May-19 00:22N 37°29' E 012°14'2210.8
2015-May-18 22:21N 37°50' E 012°21'910.8
2015-May-18 21:33N 37°57' E 012°26'5 5.1
2015-May-18 20:33N 38°01' E 012°30'0 0.0
2015-May-18 19:33N 38°01' E 012°30'0 0.0
2015-May-18 18:33N 38°01' E 012°30'0 0.0
2015-May-18 17:34N 38°01' E 012°30'0 0.0
2015-May-18 16:34N 38°01' E 012°30'0 0.0
2015-May-18 15:34N 38°01' E 012°30'0 0.0
2015-May-18 14:34N 38°01' E 012°30'5 4.7
2015-May-18 13:34N 37°58' E 012°25'1312.6
2015-May-18 12:34N 37°46' E 012°20'0 0.0
2015-May-17 22:31N 37°47' E 012°20'1111.4
2015-May-17 21:33N 37°57' E 012°25'  
2015-May-15 06:29N 38°01' E 012°30'0 0.0
2015-May-15 05:33N 38°01' E 012°30'0 0.0
2015-May-15 04:26N 38°01' E 012°30'0 0.0
2015-May-15 03:12N 38°01' E 012°30'0 0.0
2015-May-15 02:25N 38°01' E 012°30'0 0.0
2015-May-15 01:25N 38°01' E 012°30'0 0.0
2015-May-15 00:24N 38°01' E 012°30'0 0.0
2015-May-14 23:24N 38°01' E 012°30'0 0.0
2015-May-14 22:30N 38°01' E 012°30'0 0.0
2015-May-14 21:30N 38°01' E 012°30'0 0.0
2015-May-14 20:31N 38°01' E 012°30'0 0.0
2015-May-14 19:31N 38°01' E 012°30'0 0.0
2015-May-14 18:31N 38°01' E 012°30'0 0.0
2015-May-14 17:08N 38°01' E 012°30'0 0.0
2015-May-14 16:23N 38°01' E 012°30'0 0.0
2015-May-14 15:29N 38°01' E 012°30'0 0.0
2015-May-14 14:33N 38°01' E 012°30'1 1.2
2015-May-14 13:33N 37°60' E 012°29'1010.0
2015-May-14 12:33N 37°52' E 012°22'1514.6
2015-May-14 11:33N 37°38' E 012°16'1414.4
2015-May-14 10:34N 37°25' E 012°10'1414.3
2015-May-14 09:34N 37°11' E 012°04'1414.1
2015-May-14 08:34N 36°57' E 011°59'8 7.7
2015-May-14 07:33N 36°50' E 011°56'0 0.0
2015-May-14 06:33N 36°50' E 011°56'0 0.0
2015-May-14 05:33N 36°50' E 011°56'0 0.0
2015-May-14 04:33N 36°50' E 011°56'7 6.9
2015-May-14 03:33N 36°57' E 011°57'1010.1
2015-May-14 02:32N 37°07' E 012°01'1010.5
2015-May-14 01:33N 37°17' E 012°05'1110.7
2015-May-14 00:33N 37°27' E 012°10'1010.4
2015-May-13 23:34N 37°36' E 012°15'1110.9
2015-May-13 22:34N 37°46' E 012°19'1111.2
2015-May-13 21:33N 37°57' E 012°25'6 5.6
2015-May-13 20:31N 38°01' E 012°30'0 0.0
2015-May-13 19:28N 38°01' E 012°30'0 0.0
2015-May-13 18:31N 38°01' E 012°30'0 0.0
2015-May-13 17:33N 38°01' E 012°30'0 0.0
2015-May-13 16:33N 38°01' E 012°30'0 0.0
2015-May-13 15:33N 38°01' E 012°30'0 0.0
2015-May-13 14:33N 38°01' E 012°30'1 1.1
2015-May-13 13:33N 37°60' E 012°29'1010.1
2015-May-13 12:33N 37°52' E 012°21'1414.5
2015-May-13 11:33N 37°39' E 012°14'1414.4
2015-May-13 10:33N 37°25' E 012°09'1414.3
2015-May-13 09:33N 37°11' E 012°04'1413.8
2015-May-13 08:31N 36°57' E 011°59'14 2.1
2015-May-13 02:06N 37°11' E 012°01'610.8
2015-May-13 01:33N 37°16' E 012°04'3310.9
2015-May-12 22:31N 37°47' E 012°19'1111.1
2015-May-12 21:33N 37°57' E 012°25'6 5.9
2015-May-12 20:33N 38°01' E 012°30'0 0.0
2015-May-12 19:33N 38°01' E 012°30'0 0.0
2015-May-12 18:33N 38°01' E 012°30'0 0.0
2015-May-12 17:33N 38°01' E 012°30'0 0.0
2015-May-12 16:33N 38°01' E 012°30'0 0.0
2015-May-12 15:33N 38°01' E 012°30'0 0.0
2015-May-12 14:33N 38°01' E 012°30'0 0.4
2015-May-12 13:33N 38°01' E 012°30'1212.2
2015-May-12 12:33N 37°51' E 012°21'1413.6
2015-May-12 11:33N 37°38' E 012°15'1413.9
2015-May-12 10:33N 37°25' E 012°10'1414.0
2015-May-12 09:34N 37°11' E 012°05'1414.1
2015-May-12 08:33N 36°58' E 011°59'8 8.1
2015-May-12 07:34N 36°50' E 011°56'0 0.0
2015-May-12 06:34N 36°50' E 011°56'0 0.0
2015-May-12 05:33N 36°50' E 011°56'0 0.0
2015-May-12 04:28N 36°50' E 011°56'29 9.5
2015-May-12 01:25N 37°18' E 012°06'910.8
2015-May-12 00:33N 37°26' E 012°11'1110.9
2015-May-11 23:33N 37°37' E 012°15'1111.0
2015-May-11 22:33N 37°47' E 012°20'1010.6
2015-May-11 21:33N 37°57' E 012°25'6 5.9
2015-May-11 20:34N 38°01' E 012°30'0 0.0
2015-May-11 19:34N 38°01' E 012°30'0 0.0
2015-May-11 18:34N 38°01' E 012°30'0 0.0
2015-May-11 17:33N 38°01' E 012°30'0 0.0
2015-May-11 16:34N 38°01' E 012°30'0 0.0
2015-May-11 15:34N 38°01' E 012°30'0 0.0
2015-May-11 14:33N 38°01' E 012°30'2 2.4
2015-May-11 13:33N 37°59' E 012°28'1313.0
2015-May-11 12:33N 37°48' E 012°19'1313.3
2015-May-11 11:33N 37°36' E 012°13'1313.2
2015-May-11 10:33N 37°24' E 012°07'1413.6
2015-May-11 09:33N 37°11' E 012°02'21 4.2
2015-May-11 04:33N 36°50' E 011°56'  

Dump ship's entire track history